Time;durP1;ratioP1;P1;durP2;ratioP2;P2;SDS_P1;SDS_P2;PMS_P1;PMS_P2;Temp;Humidity;BMP_temperature;BMP_pressure;BME280_temperature;BME280_humidity;BME280_pressure;Samples;Min_cycle;Max_cycle;Signal;HPM_P1;HPM_P2
2023/11/01 00:00:20;;;;;;;12.25;2.50;;;14.20;99.90;;;13.50;100.00;99909.22;4209692;28;20038;-73
2023/11/01 00:02:21;;;;;;;6.32;2.03;;;14.20;99.90;;;13.49;100.00;99910.22;4208490;28;20024;-73
2023/11/01 00:04:21;;;;;;;9.82;2.38;;;14.20;99.90;;;13.51;100.00;99898.41;4212207;28;20082;-74
2023/11/01 00:06:22;;;;;;;9.60;2.03;;;14.20;99.90;;;13.52;100.00;99896.59;4202941;28;20028;-74
2023/11/01 00:08:23;;;;;;;11.20;2.15;;;14.20;99.90;;;13.56;100.00;99892.53;4202112;28;20488;-73
2023/11/01 00:10:24;;;;;;;12.70;3.45;;;14.20;99.90;;;13.56;100.00;99885.38;4203105;28;20478;-74
2023/11/01 00:12:25;;;;;;;8.32;2.03;;;14.20;99.90;;;13.56;100.00;99881.94;4203224;28;20488;-74
2023/11/01 00:14:26;;;;;;;12.48;1.80;;;14.20;99.90;;;13.54;100.00;99870.72;4203129;28;20089;-74
2023/11/01 00:16:27;;;;;;;8.23;1.73;;;14.20;99.90;;;13.58;100.00;99871.97;4202972;28;20036;-73
2023/11/01 00:18:28;;;;;;;11.43;2.17;;;14.20;99.90;;;13.60;100.00;99862.78;4203125;28;20053;-73
2023/11/01 00:20:29;;;;;;;9.07;1.50;;;14.20;99.90;;;13.74;100.00;99856.53;4199051;28;20033;-73
2023/11/01 00:22:29;;;;;;;7.07;1.40;;;14.30;99.90;;;13.73;100.00;99854.09;4202564;28;20044;-73
2023/11/01 00:24:30;;;;;;;11.00;2.38;;;14.30;99.90;;;13.72;100.00;99844.50;4185256;28;20106;-73
2023/11/01 00:26:31;;;;;;;9.50;2.63;;;14.30;99.90;;;13.70;100.00;99838.59;4218376;28;20020;-73
2023/11/01 00:28:34;;;;;;;10.95;1.80;;;14.30;99.90;;;13.70;100.00;99836.75;4185148;28;20028;-73
2023/11/01 00:30:35;;;;;;;12.40;2.17;;;14.30;99.90;;;13.74;100.00;99834.50;4200674;28;20016;-74
2023/11/01 00:32:39;;;;;;;6.28;1.27;;;14.30;99.90;;;13.73;100.00;99828.41;4202907;28;20021;-74
2023/11/01 00:34:40;;;;;;;8.48;1.65;;;14.40;99.90;;;13.74;100.00;99819.41;4202795;28;20024;-74
2023/11/01 00:36:40;;;;;;;10.52;2.15;;;14.40;99.90;;;13.72;100.00;99810.88;4202719;28;20037;-74
2023/11/01 00:38:41;;;;;;;10.15;2.35;;;14.40;99.90;;;13.76;100.00;99805.97;4202685;28;20032;-73
2023/11/01 00:40:42;;;;;;;7.88;1.33;;;14.40;99.90;;;13.77;100.00;99807.59;4202579;28;20028;-74
2023/11/01 00:42:43;;;;;;;6.72;1.60;;;14.40;99.90;;;13.77;100.00;99802.28;4184827;28;20052;-74
2023/11/01 00:44:44;;;;;;;10.68;2.80;;;14.50;99.90;;;13.83;100.00;99788.25;4202633;28;20083;-73
2023/11/01 00:46:45;;;;;;;9.80;1.40;;;14.50;99.90;;;13.81;100.00;99783.16;4184827;28;20520;-73
2023/11/01 00:48:46;;;;;;;10.13;1.52;;;14.50;99.90;;;13.85;100.00;99780.94;4184795;28;20393;-74
2023/11/01 00:50:47;;;;;;;11.05;2.35;;;14.50;99.90;;;13.85;100.00;99779.09;4192124;28;20029;-73
2023/11/01 00:52:47;;;;;;;8.52;1.65;;;14.50;99.90;;;13.86;100.00;99775.41;4197602;28;20029;-73
2023/11/01 00:54:48;;;;;;;12.68;2.17;;;14.50;99.90;;;13.89;100.00;99778.69;4194820;28;20020;-73
2023/11/01 00:56:49;;;;;;;10.77;1.83;;;14.50;99.90;;;13.92;100.00;99767.69;4202444;28;20036;-73
2023/11/01 00:58:50;;;;;;;9.23;1.73;;;14.60;99.90;;;13.90;100.00;99767.88;4202345;28;20035;-74
2023/11/01 01:00:51;;;;;;;8.68;1.67;;;14.50;99.90;;;13.93;100.00;99762.19;4202397;28;20074;-73
2023/11/01 01:02:51;;;;;;;10.93;1.65;;;14.60;99.90;;;14.00;100.00;99764.84;4202470;28;20070;-73
2023/11/01 01:04:54;;;;;;;13.13;2.83;;;14.60;99.90;;;14.08;100.00;99754.84;4202342;28;20024;-73
2023/11/01 01:06:54;;;;;;;12.05;1.98;;;14.70;99.90;;;14.10;100.00;99750.16;4184264;28;20029;-73
2023/11/01 01:08:56;;;;;;;14.00;3.15;;;14.70;99.90;;;14.11;100.00;99745.69;4202360;28;20027;-74
2023/11/01 01:10:57;;;;;;;11.25;2.17;;;14.70;99.90;;;14.11;100.00;99737.72;4184577;28;20037;-73
2023/11/01 01:12:57;;;;;;;13.25;2.42;;;14.70;99.90;;;14.18;100.00;99731.41;4202237;28;20032;-73
2023/11/01 01:14:58;;;;;;;15.10;2.40;;;14.80;99.90;;;14.24;100.00;99737.75;4184433;28;20021;-73
2023/11/01 01:16:59;;;;;;;12.27;2.10;;;14.80;99.90;;;14.25;100.00;99732.22;4202273;28;20033;-73
2023/11/01 01:19:00;;;;;;;9.60;1.88;;;14.80;99.90;;;14.25;100.00;99716.28;4184576;28;20033;-73
2023/11/01 01:21:01;;;;;;;13.10;2.30;;;14.90;99.90;;;14.26;100.00;99717.13;4196095;28;20039;-73
2023/11/01 01:23:02;;;;;;;13.55;2.13;;;14.90;99.90;;;14.33;100.00;99712.66;4198537;28;20031;-73
2023/11/01 01:25:03;;;;;;;11.48;2.55;;;14.90;99.90;;;14.33;100.00;99708.19;4202156;28;20025;-73
2023/11/01 01:27:05;;;;;;;13.05;3.47;;;14.90;99.90;;;14.36;100.00;99718.38;4201939;28;20024;-73
2023/11/01 01:29:07;;;;;;;9.98;2.20;;;15.00;99.90;;;14.37;100.00;99720.00;4201933;28;20032;-73
2023/11/01 01:31:07;;;;;;;14.57;2.90;;;15.00;99.90;;;14.45;100.00;99707.56;4201838;28;20036;-73
2023/11/01 01:33:08;;;;;;;14.65;2.65;;;15.00;99.90;;;14.45;100.00;99720.81;4202006;28;20028;-73
2023/11/01 01:35:10;;;;;;;12.88;1.98;;;15.00;99.90;;;14.54;100.00;99725.72;4202005;28;20103;-73
2023/11/01 01:37:11;;;;;;;13.02;2.88;;;15.10;99.90;;;14.60;100.00;99719.59;4201865;28;20142;-73
2023/11/01 01:39:12;;;;;;;11.20;3.00;;;15.20;99.90;;;14.54;100.00;99711.63;4201789;28;20028;-73
2023/11/01 01:41:13;;;;;;;14.18;3.17;;;15.20;99.90;;;14.53;100.00;99709.97;4180074;28;20026;-73
2023/11/01 01:43:21;;;;;;;13.60;3.00;;;15.20;99.90;;;14.62;100.00;99704.25;4208579;28;20031;-73
2023/11/01 01:45:21;;;;;;;17.92;2.83;;;15.20;99.90;;;14.58;100.00;99700.38;4201879;28;20082;-73
2023/11/01 01:47:23;;;;;;;13.38;3.10;;;15.20;99.90;;;14.59;100.00;99699.38;4201609;28;20033;-73
2023/11/01 01:49:24;;;;;;;13.82;2.65;;;15.20;99.90;;;14.49;100.00;99680.38;4184119;28;20056;-73
2023/11/01 01:51:27;;;;;;;8.45;2.22;;;15.20;99.90;;;14.61;100.00;99667.28;4201629;28;20752;-73
2023/11/01 01:53:28;;;;;;;14.20;2.72;;;15.20;99.90;;;14.50;100.00;99650.19;4191324;28;20025;-74
2023/11/01 01:55:30;;;;;;;14.32;2.60;;;15.20;99.90;;;14.59;100.00;99666.69;4215651;28;20585;-73
2023/11/01 01:57:32;;;;;;;14.75;4.47;;;15.20;99.90;;;14.49;100.00;99658.34;4201835;28;20028;-73
2023/11/01 01:59:33;;;;;;;11.35;2.40;;;15.20;99.90;;;14.43;100.00;99649.38;4201776;28;20036;-73
2023/11/01 02:01:35;;;;;;;10.93;3.03;;;15.10;99.90;;;14.42;100.00;99641.63;4201709;28;20036;-74
2023/11/01 02:03:37;;;;;;;13.18;2.10;;;15.10;99.90;;;14.36;100.00;99628.19;4183894;28;20028;-74
2023/11/01 02:05:38;;;;;;;14.30;3.15;;;15.10;99.90;;;14.31;100.00;99625.28;4217203;28;20036;-74
2023/11/01 02:07:39;;;;;;;12.32;2.38;;;15.00;99.90;;;14.30;100.00;99617.56;4194800;28;20028;-73
2023/11/01 02:09:41;;;;;;;14.10;2.17;;;15.00;99.90;;;14.27;100.00;99613.47;4211707;28;20425;-73
2023/11/01 02:11:43;;;;;;;12.70;2.10;;;15.00;99.90;;;14.20;100.00;99596.75;4201486;28;20035;-73
2023/11/01 02:13:44;;;;;;;10.60;1.90;;;14.90;99.90;;;14.19;100.00;99605.72;4184111;28;20496;-73
2023/11/01 02:15:46;;;;;;;18.35;3.28;;;14.90;99.90;;;14.24;100.00;99599.81;4183889;28;20021;-73
2023/11/01 02:17:47;;;;;;;19.35;4.38;;;14.90;99.90;;;14.24;100.00;99592.66;4183731;28;20114;-73
2023/11/01 02:19:47;;;;;;;9.43;2.53;;;14.90;99.90;;;14.26;100.00;99595.09;4200141;28;20037;-73
2023/11/01 02:21:48;;;;;;;8.35;2.03;;;14.90;99.90;;;14.30;100.00;99583.88;4175902;28;20520;-73
2023/11/01 02:23:49;;;;;;;14.73;2.97;;;14.90;99.90;;;14.31;100.00;99580.19;4183845;28;20029;-73
2023/11/01 02:25:50;;;;;;;17.30;2.78;;;14.90;99.90;;;14.34;100.00;99571.84;4183580;28;20436;-73
2023/11/01 02:27:51;;;;;;;17.55;3.17;;;14.90;99.90;;;14.38;100.00;99557.16;4201263;28;20024;-73
2023/11/01 02:29:52;;;;;;;13.63;2.15;;;15.00;99.90;;;14.39;100.00;99573.88;4201380;28;20417;-73
2023/11/01 02:31:53;;;;;;;11.93;2.67;;;15.00;99.90;;;14.43;100.00;99568.94;4184417;28;20088;-73
2023/11/01 02:33:54;;;;;;;16.88;4.53;;;15.00;99.90;;;14.38;100.00;99566.94;4186893;28;20536;-73
2023/11/01 02:35:55;;;;;;;10.95;2.30;;;15.00;99.90;;;14.39;100.00;99573.88;4204503;28;20042;-73
2023/11/01 02:37:56;;;;;;;15.00;2.60;;;15.00;99.90;;;14.37;100.00;99586.53;4204433;28;20024;-73
2023/11/01 02:39:57;;;;;;;16.08;2.75;;;15.10;99.90;;;14.35;100.00;99583.28;4186885;28;20077;-74
2023/11/01 02:41:59;;;;;;;13.77;3.00;;;15.00;99.90;;;14.32;100.00;99589.81;4204468;28;20036;-73
2023/11/01 02:44:00;;;;;;;16.42;3.22;;;15.00;99.90;;;14.31;100.00;99595.28;4204532;28;20036;-73
2023/11/01 02:46:00;;;;;;;17.38;3.90;;;14.90;99.90;;;14.29;100.00;99600.00;4204508;28;20032;-73
2023/11/01 02:48:01;;;;;;;17.98;3.38;;;14.90;99.90;;;14.25;100.00;99590.81;4186725;28;20025;-73
2023/11/01 02:50:09;;;;;;;12.93;3.15;;;14.90;99.90;;;14.16;100.00;99582.25;4204404;28;20488;-74
2023/11/01 02:52:09;;;;;;;16.33;2.40;;;14.80;99.90;;;14.08;100.00;99581.66;4197345;28;20126;-74
2023/11/01 02:54:10;;;;;;;12.80;2.35;;;14.70;99.90;;;14.03;100.00;99624.72;4193176;28;20037;-74
2023/11/01 02:56:11;;;;;;;10.18;2.45;;;14.70;99.90;;;13.96;100.00;99668.16;4204432;28;20391;-74
2023/11/01 02:58:12;;;;;;;7.68;1.90;;;14.70;99.90;;;13.44;100.00;99642.44;4204363;28;20498;-73
2023/11/01 03:00:19;;;;;;;9.57;1.33;;;14.30;99.90;;;12.97;100.00;99635.31;4204167;28;20028;-73
2023/11/01 03:02:20;;;;;;;8.27;1.98;;;13.90;99.90;;;12.64;100.00;99645.75;4187687;28;20037;-73
2023/11/01 03:04:21;;;;;;;6.07;1.20;;;13.50;99.90;;;12.38;100.00;99620.00;4204257;28;20028;-73
2023/11/01 03:06:22;;;;;;;5.00;0.90;;;13.30;99.90;;;12.22;100.00;99612.34;4203890;28;20119;-73
2023/11/01 03:08:23;;;;;;;7.28;1.70;;;13.10;99.90;;;12.08;100.00;99608.81;4186363;28;20554;-73
2023/11/01 03:10:24;;;;;;;8.73;1.70;;;12.90;99.90;;;12.02;100.00;99604.31;4204200;28;20031;-73
2023/11/01 03:12:24;;;;;;;5.60;1.05;;;12.70;99.90;;;11.90;100.00;99589.16;4201106;28;20025;-73
2023/11/01 03:14:25;;;;;;;10.45;1.50;;;12.60;99.90;;;11.88;100.00;99596.47;4204204;28;20028;-73
2023/11/01 03:16:27;;;;;;;14.05;1.77;;;12.60;99.90;;;11.85;100.00;99597.69;4186096;28;20031;-73
2023/11/01 03:18:28;;;;;;;16.63;2.03;;;12.50;99.90;;;11.79;100.00;99603.75;4202720;28;20024;-73
2023/11/01 03:20:28;;;;;;;9.13;1.50;;;12.50;99.90;;;11.72;100.00;99597.56;4194254;28;20050;-73
2023/11/01 03:22:29;;;;;;;8.80;1.17;;;12.40;99.90;;;11.71;100.00;99606.50;4203552;28;20080;-73
2023/11/01 03:24:33;;;;;;;8.30;1.77;;;12.40;99.90;;;11.68;100.00;99600.78;4186042;28;20028;-73
2023/11/01 03:26:34;;;;;;;13.05;1.67;;;12.30;99.90;;;11.65;100.00;99596.66;4203918;28;20028;-73
2023/11/01 03:28:35;;;;;;;10.48;1.73;;;12.30;99.90;;;11.59;100.00;99579.75;4186200;28;20067;-73
2023/11/01 03:30:36;;;;;;;6.70;1.42;;;12.30;99.90;;;11.58;100.00;99590.53;4203878;28;20399;-73
2023/11/01 03:32:37;;;;;;;14.40;2.42;;;12.20;99.90;;;11.58;100.00;99593.16;4203811;28;20020;-73
2023/11/01 03:34:38;;;;;;;8.73;1.40;;;12.20;99.90;;;11.61;100.00;99593.59;4203801;28;20028;-73
2023/11/01 03:36:39;;;;;;;8.10;2.85;;;12.20;99.90;;;11.64;100.00;99592.41;4185847;28;20029;-73
2023/11/01 03:38:39;;;;;;;14.55;2.28;;;12.30;99.90;;;11.67;100.00;99589.38;4185940;28;20041;-73
2023/11/01 03:40:40;;;;;;;7.88;1.55;;;12.30;99.90;;;11.67;100.00;99578.81;4219411;28;20045;-73
2023/11/01 03:42:41;;;;;;;12.48;1.80;;;12.30;99.90;;;11.62;100.00;99573.28;4203400;28;20028;-73
2023/11/01 03:44:42;;;;;;;11.13;2.22;;;12.30;99.90;;;11.64;100.00;99576.56;4203600;28;20535;-73
2023/11/01 03:46:43;;;;;;;12.38;1.55;;;12.30;99.90;;;11.65;100.00;99586.09;4185812;28;20035;-73
2023/11/01 03:48:43;;;;;;;13.13;2.35;;;12.30;99.90;;;11.61;100.00;99575.13;4203509;28;20407;-73
2023/11/01 03:50:44;;;;;;;17.02;3.22;;;12.30;99.90;;;11.64;100.00;99582.66;4185662;28;20021;-73
2023/11/01 03:52:45;;;;;;;15.73;2.90;;;12.30;99.90;;;11.63;100.00;99575.75;4198894;28;20025;-73
2023/11/01 03:54:46;;;;;;;13.32;2.20;;;12.30;99.90;;;11.60;100.00;99576.13;4195325;28;20031;-73
2023/11/01 03:56:47;;;;;;;12.02;2.53;;;12.30;99.90;;;11.59;100.00;99558.63;4203552;28;20029;-73
2023/11/01 03:58:48;;;;;;;13.93;3.08;;;12.30;99.90;;;11.58;100.00;99550.91;4203245;28;20043;-73
2023/11/01 04:00:56;;;;;;;10.70;1.70;;;12.30;99.90;;;11.59;100.00;99555.16;4185455;28;20036;-73
2023/11/01 04:02:57;;;;;;;10.35;1.88;;;12.30;99.90;;;11.56;100.00;99550.25;4203309;28;20027;-73
2023/11/01 04:04:58;;;;;;;14.05;2.38;;;12.30;99.90;;;11.59;100.00;99565.72;4185495;28;20033;-73
2023/11/01 04:06:58;;;;;;;17.23;4.30;;;12.30;99.90;;;11.58;100.00;99559.66;4203054;28;20086;-73
2023/11/01 04:08:59;;;;;;;13.25;2.28;;;12.30;99.90;;;11.57;100.00;99558.00;4185645;28;20039;-73
2023/11/01 04:11:00;;;;;;;14.05;1.77;;;12.30;99.90;;;11.60;100.00;99548.88;4203336;28;20484;-73
2023/11/01 04:13:03;;;;;;;14.80;2.78;;;12.30;99.90;;;11.59;100.00;99542.78;4203215;28;20035;-73
2023/11/01 04:15:07;;;;;;;10.98;2.17;;;12.30;99.90;;;11.55;100.00;99538.09;4185633;28;20415;-73
2023/11/01 04:17:09;;;;;;;14.05;2.22;;;12.30;99.90;;;11.55;100.00;99530.16;4203178;28;20115;-73
2023/11/01 04:19:11;;;;;;;16.80;2.00;;;12.30;99.90;;;11.58;100.00;99530.59;4185492;28;20048;-73
2023/11/01 04:21:11;;;;;;;14.60;2.95;;;12.30;99.90;;;11.56;100.00;99516.75;4195635;28;20044;-73
2023/11/01 04:23:12;;;;;;;10.77;1.60;;;12.20;99.90;;;11.59;100.00;99526.94;4201246;28;20024;-73
2023/11/01 04:25:13;;;;;;;11.15;2.22;;;12.30;99.90;;;11.59;100.00;99526.09;4203021;28;20031;-73
2023/11/01 04:27:14;;;;;;;11.77;1.40;;;12.20;99.90;;;11.59;100.00;99531.38;4185256;28;20021;-73
2023/11/01 04:29:15;;;;;;;12.60;2.88;;;12.20;99.90;;;11.58;100.00;99525.31;4185049;28;20021;-73
2023/11/01 04:31:17;;;;;;;15.57;1.85;;;12.30;99.90;;;11.59;100.00;99518.19;4193808;28;20021;-74
2023/11/01 04:33:17;;;;;;;10.52;2.03;;;12.30;99.90;;;11.62;100.00;99510.69;4185272;28;20024;-73
2023/11/01 04:35:18;;;;;;;8.65;1.58;;;12.30;99.90;;;11.62;100.00;99507.25;4185260;28;20036;-73
2023/11/01 04:37:21;;;;;;;10.57;1.63;;;12.30;99.90;;;11.63;100.00;99503.59;4202517;28;20032;-73
2023/11/01 04:39:22;;;;;;;11.15;1.58;;;12.30;99.90;;;11.60;100.00;99501.34;4202551;28;20032;-73
2023/11/01 04:41:27;;;;;;;12.52;2.28;;;12.30;99.90;;;11.66;100.00;99504.03;4168348;28;20032;-73
2023/11/01 04:43:29;;;;;;;11.48;1.80;;;12.30;99.90;;;11.64;100.00;99494.69;4202573;28;20099;-73
2023/11/01 04:45:31;;;;;;;13.27;2.47;;;12.30;99.90;;;11.68;100.00;99495.91;4184816;28;20032;-73
2023/11/01 04:47:35;;;;;;;12.85;2.60;;;12.30;99.90;;;11.67;100.00;99489.00;4202564;28;20035;-74
2023/11/01 04:49:36;;;;;;;12.77;1.55;;;12.30;99.90;;;11.68;100.00;99475.59;4185235;28;20025;-73
2023/11/01 04:51:37;;;;;;;12.15;2.35;;;12.40;99.90;;;11.68;100.00;99465.03;4202465;28;20037;-73
2023/11/01 04:53:39;;;;;;;8.00;1.58;;;12.40;99.90;;;11.68;100.00;99457.09;4202388;28;20054;-74
2023/11/01 04:55:39;;;;;;;12.27;2.67;;;12.40;99.90;;;11.71;100.00;99450.63;4184271;28;20025;-73
2023/11/01 04:57:43;;;;;;;11.57;1.73;;;12.40;99.90;;;11.74;100.00;99454.75;4184818;28;20025;-73
2023/11/01 04:59:44;;;;;;;8.50;1.55;;;12.40;99.90;;;11.74;100.00;99441.53;4185053;28;20054;-73
2023/11/01 05:01:47;;;;;;;12.38;1.42;;;12.40;99.90;;;11.77;100.00;99447.22;4184619;28;20037;-73
2023/11/01 05:03:48;;;;;;;6.28;1.33;;;12.40;99.90;;;11.75;100.00;99436.03;4193757;28;20032;-74
2023/11/01 05:05:49;;;;;;;6.50;1.38;;;12.40;99.90;;;11.77;100.00;99434.00;4202064;28;20033;-73
2023/11/01 05:07:51;;;;;;;9.48;1.15;;;12.40;99.90;;;11.76;100.00;99429.75;4202084;28;20036;-73
2023/11/01 05:09:52;;;;;;;10.85;1.30;;;12.40;99.90;;;11.80;100.00;99416.97;4204588;28;20047;-73
2023/11/01 05:11:53;;;;;;;13.27;1.58;;;12.40;99.90;;;11.80;100.00;99420.41;4185226;28;20067;-73
2023/11/01 05:13:53;;;;;;;15.25;1.90;;;12.40;99.90;;;11.81;100.00;99432.63;4202231;28;20029;-73
2023/11/01 05:15:55;;;;;;;8.73;2.38;;;12.50;99.90;;;11.83;100.00;99421.84;4184428;28;20039;-73
2023/11/01 05:17:56;;;;;;;13.45;1.65;;;12.50;99.90;;;11.85;100.00;99420.66;4202106;28;20040;-73
2023/11/01 05:19:57;;;;;;;9.60;2.80;;;12.50;99.90;;;11.86;100.00;99397.66;4184178;28;20021;-73
2023/11/01 05:21:58;;;;;;;12.50;1.60;;;12.50;99.90;;;11.92;100.00;99410.09;4194086;28;20496;-73
2023/11/01 05:23:59;;;;;;;13.57;1.77;;;12.50;99.90;;;11.91;100.00;99432.25;4185149;28;20078;-73
2023/11/01 05:25:59;;;;;;;12.00;1.73;;;12.50;99.90;;;11.93;100.00;99431.06;4184257;28;20025;-73
2023/11/01 05:28:00;;;;;;;5.93;1.65;;;12.60;99.90;;;11.96;100.00;99429.84;4184173;28;20017;-73
2023/11/01 05:30:01;;;;;;;7.35;1.50;;;12.60;99.90;;;11.96;100.00;99435.13;4184227;28;20028;-73
2023/11/01 05:32:02;;;;;;;9.57;1.63;;;12.60;99.90;;;11.99;100.00;99440.03;4201922;28;20021;-73
2023/11/01 05:34:05;;;;;;;16.65;2.22;;;12.70;99.90;;;12.00;100.00;99458.34;4184036;28;20039;-73
2023/11/01 05:36:09;;;;;;;5.20;1.20;;;12.60;99.90;;;12.04;100.00;99469.31;4183926;28;20060;-73
2023/11/01 05:38:10;;;;;;;11.38;1.60;;;12.60;99.90;;;11.95;100.00;99497.72;4167875;28;20124;-73
2023/11/01 05:40:14;;;;;;;13.48;1.55;;;12.60;99.90;;;12.00;100.00;99513.84;4178942;28;20511;-73
2023/11/01 05:42:15;;;;;;;10.30;1.42;;;12.60;99.90;;;11.77;100.00;99520.41;4200717;28;20032;-73
2023/11/01 05:44:19;;;;;;;12.05;2.50;;;12.50;99.90;;;11.57;100.00;99522.84;4184021;28;20025;-73
2023/11/01 05:46:23;;;;;;;11.68;2.22;;;12.30;99.90;;;11.39;100.00;99515.41;4217227;28;20115;-73
2023/11/01 05:48:23;;;;;;;11.50;2.47;;;12.20;99.90;;;11.23;100.00;99517.50;4201855;28;20503;-73
2023/11/01 05:50:24;;;;;;;13.88;2.30;;;12.00;99.90;;;11.10;100.00;99507.66;4184080;28;20188;-73
2023/11/01 05:52:28;;;;;;;11.63;2.30;;;11.90;99.90;;;11.01;100.00;99501.69;4182086;28;20063;-73
2023/11/01 05:54:29;;;;;;;12.50;2.63;;;11.80;99.90;;;10.94;100.00;99490.25;4207428;28;20043;-73
2023/11/01 05:56:30;;;;;;;14.55;3.13;;;11.70;99.90;;;10.86;100.00;99490.38;4201840;28;20036;-73
2023/11/01 05:58:31;;;;;;;12.88;2.88;;;11.60;99.90;;;10.77;100.00;99490.69;4200705;28;20033;-73
2023/11/01 06:00:33;;;;;;;15.13;3.78;;;11.50;99.90;;;10.70;100.00;99484.50;4183604;28;20153;-73
2023/11/01 06:02:37;;;;;;;10.77;2.30;;;11.40;99.90;;;10.67;100.00;99477.78;4201946;28;20444;-73
2023/11/01 06:04:38;;;;;;;19.42;2.75;;;11.40;99.90;;;10.62;100.00;99479.34;4201698;28;20372;-73
2023/11/01 06:06:39;;;;;;;14.90;2.92;;;11.30;99.90;;;10.59;100.00;99472.66;4201744;28;20074;-73
2023/11/01 06:08:40;;;;;;;19.58;3.63;;;11.30;99.90;;;10.57;100.00;99474.66;4205033;28;20027;-73
2023/11/01 06:10:42;;;;;;;15.52;2.38;;;11.30;99.90;;;10.55;100.00;99484.56;4205314;28;20038;-73
2023/11/01 06:12:42;;;;;;;12.32;2.17;;;11.20;99.90;;;10.52;100.00;99467.28;4205178;28;20024;-73
2023/11/01 06:14:43;;;;;;;15.30;4.50;;;11.20;99.90;;;10.46;100.00;99452.22;4170595;28;20036;-73
2023/11/01 06:16:44;;;;;;;16.63;3.15;;;11.20;99.90;;;10.52;100.00;99453.28;4204788;28;20377;-73
2023/11/01 06:18:45;;;;;;;12.07;2.00;;;11.20;99.90;;;10.52;100.00;99435.66;4205230;28;20537;-73
2023/11/01 06:20:46;;;;;;;19.73;3.05;;;11.20;99.90;;;10.55;100.00;99416.00;4185710;28;20066;-73
2023/11/01 06:22:47;;;;;;;14.68;2.55;;;11.20;99.90;;;10.48;100.00;99409.88;4204485;28;20053;-73
2023/11/01 06:24:48;;;;;;;24.35;3.83;;;11.20;99.90;;;10.54;100.00;99399.34;4204952;28;20510;-73
2023/11/01 06:26:48;;;;;;;16.77;2.83;;;11.20;99.90;;;10.52;100.00;99397.91;4186874;28;20021;-73
2023/11/01 06:28:49;;;;;;;20.67;3.10;;;11.20;99.90;;;10.47;100.00;99395.88;4204696;28;20047;-73
2023/11/01 06:30:50;;;;;;;10.65;2.25;;;11.20;99.90;;;10.44;100.00;99390.97;4181691;28;20508;-72
2023/11/01 06:32:51;;;;;;;9.98;1.95;;;11.20;99.90;;;10.43;100.00;99399.88;4205402;28;20031;-73
2023/11/01 06:34:52;;;;;;;9.60;1.85;;;11.20;99.90;;;10.40;100.00;99394.16;4204830;28;20480;-73
2023/11/01 06:36:52;;;;;;;17.33;3.70;;;11.10;99.90;;;10.34;100.00;99389.63;4186788;28;20033;-73
2023/11/01 06:38:53;;;;;;;10.02;1.95;;;11.10;99.90;;;10.36;100.00;99398.19;4204627;28;20036;-73
2023/11/01 06:40:54;;;;;;;14.82;3.38;;;11.10;99.90;;;10.31;100.00;99406.63;4194647;28;20392;-73
2023/11/01 06:42:55;;;;;;;12.82;2.60;;;11.10;99.90;;;10.32;100.00;99408.28;4204689;28;20033;-73
2023/11/01 06:44:56;;;;;;;26.70;3.30;;;11.00;99.90;;;10.29;100.00;99405.19;4204586;28;20036;-72
2023/11/01 06:46:57;;;;;;;16.27;2.00;;;11.00;99.90;;;10.31;100.00;99421.63;4186596;28;20025;-73
2023/11/01 06:48:59;;;;;;;11.65;1.80;;;11.00;99.90;;;10.30;100.00;99420.84;4204364;28;20046;-72
2023/11/01 06:50:59;;;;;;;12.43;2.90;;;11.00;99.90;;;10.32;100.00;99423.28;4193625;28;20484;-73
2023/11/01 06:53:00;;;;;;;12.95;2.63;;;11.00;99.90;;;10.35;100.00;99423.72;4198184;28;20040;-73
2023/11/01 06:55:01;;;;;;;16.02;2.80;;;11.10;99.90;;;10.32;100.00;99428.53;4214994;28;20032;-73
2023/11/01 06:57:03;;;;;;;12.52;2.22;;;11.10;99.90;;;10.31;100.00;99432.16;4186519;28;20082;-73
2023/11/01 06:59:03;;;;;;;16.55;2.50;;;11.00;99.90;;;10.27;100.00;99430.94;4204558;28;20024;-73
2023/11/01 07:01:06;;;;;;;16.98;3.00;;;11.00;99.90;;;10.28;100.00;99428.09;4199072;28;20040;-73
2023/11/01 07:03:07;;;;;;;15.10;2.83;;;11.00;99.90;;;10.27;100.00;99425.66;4204458;28;20116;-73
2023/11/01 07:05:08;;;;;;;12.27;2.42;;;11.00;99.90;;;10.26;100.00;99427.47;4186438;28;20053;-73
2023/11/01 07:07:09;;;;;;;13.43;1.88;;;11.00;99.90;;;10.32;100.00;99433.81;4203972;28;20033;-73
2023/11/01 07:09:10;;;;;;;16.95;2.40;;;11.00;99.90;;;10.32;100.00;99433.81;4204247;28;20023;-73
2023/11/01 07:11:11;;;;;;;18.50;2.60;;;11.10;99.90;;;10.33;100.00;99431.00;4207490;28;20495;-73
2023/11/01 07:13:12;;;;;;;12.13;2.90;;;11.10;99.90;;;10.36;100.00;99443.00;4206602;28;20020;-73
2023/11/01 07:15:13;;;;;;;10.82;1.85;;;11.10;99.90;;;10.39;100.00;99432.88;4186323;28;20036;-73
2023/11/01 07:17:14;;;;;;;13.93;2.00;;;11.10;99.90;;;10.41;100.00;99432.69;4203890;28;20028;-73
2023/11/01 07:19:15;;;;;;;11.48;2.17;;;11.20;99.90;;;10.46;100.00;99440.84;4186075;28;20029;-73
2023/11/01 07:21:16;;;;;;;16.08;2.22;;;11.20;99.90;;;10.48;100.00;99441.50;4202701;28;20059;-73
2023/11/01 07:23:17;;;;;;;12.73;2.30;;;11.20;99.90;;;10.49;100.00;99451.03;4204100;28;20028;-73
2023/11/01 07:25:18;;;;;;;12.20;2.28;;;11.20;99.90;;;10.45;100.00;99445.31;4186286;28;20071;-73
2023/11/01 07:27:19;;;;;;;10.60;1.60;;;11.20;99.90;;;10.49;100.00;99441.31;4203900;28;20025;-73
2023/11/01 07:29:20;;;;;;;15.25;2.85;;;11.20;99.90;;;10.49;100.00;99440.47;4185860;28;20075;-73
2023/11/01 07:31:21;;;;;;;14.73;2.45;;;11.20;99.90;;;10.45;100.00;99444.50;4192126;28;20032;-73
2023/11/01 07:33:22;;;;;;;18.45;3.60;;;11.20;99.90;;;10.42;100.00;99440.41;4203720;28;20016;-73
2023/11/01 07:35:22;;;;;;;14.82;1.75;;;11.20;99.90;;;10.40;100.00;99441.59;4203880;28;20031;-73
2023/11/01 07:37:24;;;;;;;13.00;3.00;;;11.10;99.90;;;10.37;100.00;99439.34;4203495;28;20025;-73
2023/11/01 07:39:25;;;;;;;12.25;2.78;;;11.10;99.90;;;10.32;100.00;99439.91;4185907;28;20037;-73
2023/11/01 07:41:25;;;;;;;15.05;3.05;;;11.10;99.90;;;10.32;100.00;99439.91;4195099;28;20039;-73
2023/11/01 07:43:26;;;;;;;13.43;2.80;;;11.10;99.90;;;10.30;100.00;99441.09;4202950;28;20039;-73
2023/11/01 07:45:27;;;;;;;21.80;3.70;;;11.00;99.90;;;10.28;100.00;99433.38;4203645;28;20035;-73
2023/11/01 07:47:28;;;;;;;11.40;2.72;;;11.00;99.90;;;10.26;100.00;99440.66;4203474;28;20033;-73
2023/11/01 07:49:29;;;;;;;14.07;2.28;;;11.00;99.90;;;10.23;100.00;99434.94;4185718;28;20024;-73
2023/11/01 07:51:30;;;;;;;19.42;3.05;;;11.00;99.90;;;10.22;100.00;99435.91;4196517;28;20039;-73
2023/11/01 07:53:30;;;;;;;15.80;2.55;;;10.90;99.90;;;10.18;100.00;99424.13;4205083;28;20020;-73
2023/11/01 07:55:31;;;;;;;20.13;5.05;;;10.90;99.90;;;10.19;100.00;99436.28;4203423;28;20361;-73
2023/11/01 07:57:32;;;;;;;26.48;4.53;;;10.90;99.90;;;10.15;100.00;99435.03;4185595;28;20025;-73
2023/11/01 07:59:33;;;;;;;21.50;4.40;;;10.90;99.90;;;10.11;100.00;99444.28;4203408;28;20040;-73
2023/11/01 08:01:36;;;;;;;22.88;4.78;;;10.90;99.90;;;10.09;100.00;99438.38;4199028;28;20025;-72
2023/11/01 08:03:37;;;;;;;15.48;4.20;;;10.90;99.90;;;10.05;100.00;99437.94;4185587;28;20089;-73
2023/11/01 08:05:38;;;;;;;15.00;3.55;;;10.80;99.90;;;10.09;100.00;99443.66;4185743;28;20115;-73
2023/11/01 08:07:39;;;;;;;15.40;3.40;;;10.80;99.90;;;10.06;100.00;99442.22;4203033;28;20506;-73
2023/11/01 08:09:40;;;;;;;19.20;5.53;;;10.80;99.90;;;10.04;100.00;99449.47;4203159;28;20028;-73
2023/11/01 08:11:41;;;;;;;21.80;4.85;;;10.80;99.90;;;10.09;100.00;99441.03;4203110;28;20024;-73
2023/11/01 08:13:42;;;;;;;16.40;4.90;;;10.80;99.90;;;10.12;100.00;99444.13;4203287;28;20032;-73
2023/11/01 08:15:43;;;;;;;20.30;3.83;;;10.80;99.90;;;10.19;100.00;99454.72;4203151;28;20024;-73
2023/11/01 08:17:44;;;;;;;14.90;2.70;;;10.90;99.90;;;10.21;100.00;99453.56;4185495;28;20033;-73
2023/11/01 08:19:45;;;;;;;11.40;3.03;;;11.00;99.90;;;10.26;100.00;99450.38;4202213;28;20035;-73